createdAt,value
2019-02-24T00:02:22.941Z,86.40
2019-02-24T00:04:55.328Z,87.30
2019-02-24T00:07:25.803Z,87.30
2019-02-24T00:09:56.313Z,87.20
2019-02-24T00:12:26.786Z,87.70
2019-02-24T00:14:57.302Z,87.50
2019-02-24T00:17:27.769Z,87.70
2019-02-24T00:19:58.277Z,88.40
2019-02-24T00:22:29.927Z,88.00
2019-02-24T00:25:00.424Z,87.60
2019-02-24T00:27:30.935Z,87.70
2019-02-24T00:30:01.412Z,88.50
2019-02-24T00:32:34.502Z,88.30
2019-02-24T00:35:06.503Z,88.90
2019-02-24T00:37:37.044Z,88.30
2019-02-24T00:40:08.716Z,88.50
2019-02-24T00:42:39.759Z,88.70
2019-02-24T00:45:10.395Z,89.00
2019-02-24T00:47:40.867Z,89.50
2019-02-24T00:50:11.443Z,89.10
2019-02-24T00:52:42.466Z,87.80
2019-02-24T00:55:13.033Z,88.10
2019-02-24T00:57:43.534Z,88.60
2019-02-24T01:00:14.575Z,88.80
2019-02-24T01:02:45.161Z,88.50
2019-02-24T01:05:15.703Z,88.20
2019-02-24T01:07:47.743Z,88.90
2019-02-24T01:10:18.247Z,88.50
2019-02-24T01:12:48.717Z,88.80
2019-02-24T01:15:19.213Z,89.20
2019-02-24T01:17:49.681Z,89.90
2019-02-24T01:20:20.184Z,90.10
2019-02-24T01:22:50.691Z,90.20
2019-02-24T01:25:23.045Z,90.20
2019-02-24T01:27:53.527Z,90.20
2019-02-24T01:30:25.915Z,90.30
2019-02-24T01:32:57.261Z,90.40
2019-02-24T01:35:27.768Z,90.40
2019-02-24T01:37:58.284Z,90.50
2019-02-24T01:40:30.435Z,90.30
2019-02-24T01:43:00.927Z,90.20
2019-02-24T01:45:31.447Z,90.30
2019-02-24T01:48:01.939Z,90.30
2019-02-24T01:50:32.430Z,90.10
2019-02-24T01:53:02.986Z,90.00
2019-02-24T01:55:35.766Z,89.70
2019-02-24T01:58:06.829Z,89.40
2019-02-24T02:00:37.329Z,89.30
2019-02-24T02:03:07.884Z,89.80
2019-02-24T02:05:38.400Z,90.10
2019-02-24T02:08:08.871Z,90.30
2019-02-24T02:10:39.381Z,90.50
2019-02-24T02:13:09.852Z,90.50
2019-02-24T02:15:40.351Z,90.60
2019-02-24T02:18:10.826Z,91.10
2019-02-24T02:20:41.331Z,90.90
2019-02-24T02:23:11.802Z,90.90
2019-02-24T02:25:42.309Z,91.10
2019-02-24T02:28:12.781Z,91.30
2019-02-24T02:30:43.281Z,91.50
2019-02-24T02:33:13.773Z,91.50
2019-02-24T02:35:44.353Z,91.40
2019-02-24T02:38:14.821Z,91.10
2019-02-24T02:40:45.315Z,90.60
2019-02-24T02:43:15.787Z,90.90
2019-02-24T02:45:46.304Z,91.20
2019-02-24T02:48:16.798Z,91.60
2019-02-24T02:50:47.450Z,91.60
2019-02-24T02:53:17.966Z,91.50
2019-02-24T02:55:49.040Z,91.80
2019-02-24T02:58:19.527Z,91.80
2019-02-24T03:00:50.000Z,91.80
2019-02-24T03:03:20.492Z,91.80
2019-02-24T03:05:52.594Z,91.80
2019-02-24T03:08:24.744Z,91.90
2019-02-24T03:10:55.213Z,91.80
2019-02-24T03:13:25.709Z,92.00
2019-02-24T03:15:56.220Z,92.20
2019-02-24T03:18:26.732Z,92.20
2019-02-24T03:20:57.200Z,92.10
2019-02-24T03:23:27.697Z,92.30
2019-02-24T03:25:58.177Z,92.00
2019-02-24T03:28:28.682Z,92.00
2019-02-24T03:30:59.938Z,91.20
2019-02-24T03:33:30.975Z,91.00
2019-02-24T03:36:01.479Z,91.00
2019-02-24T03:38:31.950Z,91.00
2019-02-24T03:41:02.522Z,90.80
2019-02-24T03:43:33.096Z,89.70
2019-02-24T03:46:03.575Z,89.00
2019-02-24T03:48:34.074Z,88.70
2019-02-24T03:51:04.548Z,86.30
2019-02-24T03:53:35.117Z,86.50
2019-02-24T03:56:05.594Z,87.20
2019-02-24T03:58:36.114Z,87.00
2019-02-24T04:01:06.677Z,87.50
2019-02-24T04:03:37.340Z,88.20
2019-02-24T04:06:07.811Z,87.90
2019-02-24T04:08:38.328Z,86.10
2019-02-24T04:11:09.913Z,86.10
2019-02-24T04:13:40.410Z,85.50
2019-02-24T04:16:10.988Z,84.40
2019-02-24T04:18:41.466Z,84.80
2019-02-24T04:21:11.964Z,85.40
2019-02-24T04:23:42.443Z,85.80
2019-02-24T04:26:13.518Z,86.10
2019-02-24T04:28:44.022Z,85.60
2019-02-24T04:31:14.597Z,86.20
2019-02-24T04:33:45.068Z,86.50
2019-02-24T04:36:17.874Z,87.20
2019-02-24T04:38:48.371Z,87.00
2019-02-24T04:41:18.851Z,86.70
2019-02-24T04:43:50.976Z,87.10
2019-02-24T04:46:21.494Z,88.40
2019-02-24T04:48:51.970Z,89.30
2019-02-24T04:51:22.443Z,89.50
2019-02-24T04:53:52.931Z,90.10
2019-02-24T04:56:24.152Z,89.80
2019-02-24T04:58:55.237Z,88.30
2019-02-24T05:01:27.237Z,86.10
2019-02-24T05:03:57.723Z,85.10
2019-02-24T05:06:28.257Z,84.80
2019-02-24T05:08:59.601Z,84.10
2019-02-24T05:11:30.094Z,82.60
2019-02-24T05:14:00.581Z,82.70
2019-02-24T05:16:31.095Z,83.00
2019-02-24T05:19:01.575Z,83.20
2019-02-24T05:21:32.055Z,81.30
2019-02-24T05:24:04.067Z,80.20
2019-02-24T05:26:35.586Z,80.30
2019-02-24T05:29:06.070Z,80.00
2019-02-24T05:31:36.576Z,80.70
2019-02-24T05:34:08.417Z,81.10
2019-02-24T05:36:38.902Z,82.20
2019-02-24T05:39:09.413Z,82.70
2019-02-24T05:41:42.317Z,83.10
2019-02-24T05:44:12.832Z,84.50
2019-02-24T05:46:43.290Z,84.70
2019-02-24T05:49:13.811Z,85.20
2019-02-24T05:51:44.804Z,84.50
2019-02-24T05:54:16.086Z,82.80
2019-02-24T05:56:46.574Z,82.20
2019-02-24T05:59:17.142Z,82.90
2019-02-24T06:01:47.613Z,82.40
2019-02-24T06:04:18.123Z,81.30
2019-02-24T06:06:48.592Z,81.30
2019-02-24T06:09:19.113Z,82.40
2019-02-24T06:11:49.601Z,82.70
2019-02-24T06:14:20.134Z,82.40
2019-02-24T06:16:52.172Z,81.30
2019-02-24T06:19:22.640Z,82.00
2019-02-24T06:21:53.150Z,81.90
2019-02-24T06:24:23.650Z,82.20
2019-02-24T06:26:54.129Z,82.60
2019-02-24T06:29:24.637Z,83.20
2019-02-24T06:31:55.107Z,83.80
2019-02-24T06:34:25.606Z,83.90
2019-02-24T06:36:56.080Z,83.30
2019-02-24T06:39:26.591Z,82.70
2019-02-24T06:41:57.066Z,83.50
2019-02-24T06:44:27.562Z,83.30
2019-02-24T06:46:58.363Z,82.00
2019-02-24T06:49:34.530Z,82.00
2019-02-24T06:52:05.035Z,81.30
2019-02-24T06:54:35.530Z,81.20
2019-02-24T06:57:05.996Z,79.80
2019-02-24T06:59:36.501Z,79.70
2019-02-24T07:02:06.980Z,79.60
2019-02-24T07:04:37.475Z,79.90
2019-02-24T07:07:07.954Z,80.10
2019-02-24T07:09:38.464Z,79.80
2019-02-24T07:12:08.935Z,76.40
2019-02-24T07:14:39.435Z,76.80
2019-02-24T07:17:09.969Z,77.00
2019-02-24T07:19:40.479Z,77.20
2019-02-24T07:22:10.976Z,77.70
2019-02-24T07:24:41.506Z,76.00
2019-02-24T07:27:31.321Z,75.20
2019-02-24T07:30:01.827Z,73.60
2019-02-24T07:32:32.308Z,72.90
2019-02-24T07:35:02.796Z,73.70
2019-02-24T07:37:33.273Z,72.30
2019-02-24T07:40:03.850Z,72.20
2019-02-24T07:42:34.328Z,71.50
2019-02-24T07:45:06.884Z,70.50
2019-02-24T07:47:37.341Z,68.70
2019-02-24T07:50:11.302Z,66.30
2019-02-24T07:52:41.754Z,66.40
2019-02-24T07:55:12.337Z,65.60
2019-02-24T07:57:42.871Z,65.20
2019-02-24T08:00:13.527Z,63.80
2019-02-24T08:02:43.986Z,63.40
2019-02-24T08:05:14.552Z,63.30
2019-02-24T08:07:45.045Z,62.60
2019-02-24T08:10:15.541Z,62.90
2019-02-24T08:12:46.016Z,63.10
2019-02-24T08:15:16.518Z,62.90
2019-02-24T08:17:46.987Z,63.20
2019-02-24T08:20:17.548Z,63.30
2019-02-24T08:22:48.029Z,64.20
2019-02-24T08:25:18.528Z,62.60
2019-02-24T08:27:49.020Z,63.50
2019-02-24T08:30:19.500Z,61.10
2019-02-24T08:32:49.989Z,60.90
2019-02-24T08:35:20.490Z,62.20
2019-02-24T08:37:50.962Z,61.80
2019-02-24T08:40:21.529Z,59.60
2019-02-24T08:42:52.036Z,59.40
2019-02-24T08:45:22.541Z,59.20
2019-02-24T08:47:53.034Z,59.20
2019-02-24T08:50:23.501Z,58.60
2019-02-24T08:52:54.002Z,57.50
2019-02-24T08:55:24.481Z,56.10
2019-02-24T08:57:54.979Z,56.40
2019-02-24T09:00:25.473Z,56.10
2019-02-24T09:02:55.934Z,56.20
2019-02-24T09:05:26.464Z,53.50
2019-02-24T09:07:56.908Z,52.50
2019-02-24T09:10:27.471Z,51.50
2019-02-24T09:12:58.830Z,50.10
2019-02-24T09:15:29.288Z,49.20
2019-02-24T09:17:59.800Z,48.80
2019-02-24T09:20:30.248Z,48.10
2019-02-24T09:23:00.733Z,47.10
2019-02-24T09:25:31.188Z,47.20
2019-02-24T09:28:01.685Z,46.20
2019-02-24T09:30:32.143Z,45.50
2019-02-24T09:33:02.659Z,45.60
2019-02-24T09:35:33.113Z,44.10
2019-02-24T09:38:03.610Z,43.30
2019-02-24T09:40:34.087Z,44.30
2019-02-24T09:43:04.565Z,43.40
2019-02-24T09:45:35.043Z,41.90
2019-02-24T09:48:05.553Z,40.90
2019-02-24T09:50:36.009Z,40.90
2019-02-24T09:53:06.484Z,40.30
2019-02-24T09:55:36.988Z,40.50
2019-02-24T09:58:08.132Z,39.40
2019-02-24T10:00:38.622Z,38.90
2019-02-24T10:03:09.094Z,39.50
2019-02-24T10:05:39.584Z,39.80
2019-02-24T10:08:10.105Z,38.80
2019-02-24T10:10:40.607Z,38.90
2019-02-24T10:13:11.072Z,38.80
2019-02-24T10:15:41.551Z,39.10
2019-02-24T10:18:12.115Z,40.60
2019-02-24T10:20:42.705Z,40.30
2019-02-24T10:23:13.205Z,41.40
2019-02-24T10:25:43.660Z,42.00
2019-02-24T10:28:14.147Z,41.00
2019-02-24T10:30:44.600Z,40.60
2019-02-24T10:33:15.175Z,40.70
2019-02-24T10:35:45.634Z,41.40
2019-02-24T10:38:16.115Z,41.40
2019-02-24T10:40:46.598Z,39.90
2019-02-24T10:43:17.103Z,39.80
2019-02-24T10:45:47.590Z,39.00
2019-02-24T10:48:18.095Z,38.60
2019-02-24T10:50:48.564Z,38.60
2019-02-24T10:53:19.020Z,38.30
2019-02-24T10:55:49.519Z,37.70
2019-02-24T10:58:21.308Z,37.10
2019-02-24T11:00:51.806Z,36.10
2019-02-24T11:03:22.292Z,37.10
2019-02-24T11:05:52.745Z,37.80
2019-02-24T11:08:23.230Z,38.50
2019-02-24T11:10:53.683Z,37.00
2019-02-24T11:13:24.215Z,35.90
2019-02-24T11:15:54.713Z,36.40
2019-02-24T11:18:25.226Z,36.50
2019-02-24T11:20:55.673Z,36.50
2019-02-24T11:23:26.167Z,35.40
2019-02-24T11:25:56.619Z,34.50
2019-02-24T11:28:27.114Z,33.20
2019-02-24T11:30:57.705Z,33.10
2019-02-24T11:33:28.208Z,33.50
2019-02-24T11:35:58.697Z,33.80
2019-02-24T11:38:29.258Z,33.50
2019-02-24T11:40:59.719Z,32.70
2019-02-24T11:43:30.212Z,32.40
2019-02-24T11:46:00.668Z,32.20
2019-02-24T11:48:31.152Z,33.50
2019-02-24T11:51:01.636Z,33.20
2019-02-24T11:53:32.113Z,32.50
2019-02-24T11:56:02.592Z,32.20
2019-02-24T11:58:33.055Z,32.80
2019-02-24T12:01:03.678Z,32.10
2019-02-24T12:03:34.144Z,32.40
2019-02-24T12:06:04.695Z,33.40
2019-02-24T12:08:37.181Z,33.80
2019-02-24T12:11:09.363Z,34.00
2019-02-24T12:13:39.855Z,34.00
2019-02-24T12:16:11.849Z,34.20
2019-02-24T12:18:42.366Z,34.30
2019-02-24T12:21:12.859Z,34.00
2019-02-24T12:23:43.343Z,33.90
2019-02-24T12:26:14.753Z,33.60
2019-02-24T12:28:45.207Z,34.40
2019-02-24T12:31:15.700Z,34.60
2019-02-24T12:33:46.728Z,36.00
2019-02-24T12:36:18.766Z,35.50
2019-02-24T12:38:49.225Z,34.70
2019-02-24T12:41:19.720Z,34.10
2019-02-24T12:43:50.276Z,33.70
2019-02-24T12:46:20.744Z,34.10
2019-02-24T12:48:51.234Z,33.90
2019-02-24T12:51:21.684Z,33.50
2019-02-24T12:53:52.195Z,33.70
2019-02-24T12:56:22.676Z,34.00
2019-02-24T12:58:53.160Z,34.70
2019-02-24T13:01:23.735Z,35.10
2019-02-24T13:03:54.187Z,34.90
2019-02-24T13:06:24.682Z,34.70
2019-02-24T13:08:55.209Z,33.80
2019-02-24T13:11:25.826Z,34.50
2019-02-24T13:13:56.330Z,34.60
2019-02-24T13:16:26.768Z,34.50
2019-02-24T13:18:57.270Z,34.60
2019-02-24T13:21:27.779Z,34.80
2019-02-24T13:23:58.301Z,35.60
2019-02-24T13:26:28.752Z,35.80
2019-02-24T13:28:59.237Z,35.50
2019-02-24T13:31:29.707Z,36.10
2019-02-24T13:34:00.164Z,36.40
2019-02-24T13:36:30.648Z,36.40
2019-02-24T13:39:01.113Z,35.80
2019-02-24T13:41:31.599Z,35.90
2019-02-24T13:44:02.067Z,36.40
2019-02-24T13:46:33.547Z,36.70
2019-02-24T13:49:04.026Z,36.50
2019-02-24T13:51:34.527Z,36.30
2019-02-24T13:54:05.086Z,36.10
2019-02-24T13:56:35.555Z,36.00
2019-02-24T13:59:06.932Z,35.70
2019-02-24T14:01:37.404Z,35.50
2019-02-24T14:04:07.847Z,35.30
2019-02-24T14:06:38.358Z,34.90
2019-02-24T14:09:08.806Z,34.20
2019-02-24T14:11:39.287Z,34.10
2019-02-24T14:14:10.015Z,34.30
2019-02-24T14:16:40.705Z,34.10
2019-02-24T14:19:11.188Z,34.10
2019-02-24T14:21:41.670Z,33.40
2019-02-24T14:24:12.143Z,33.40
2019-02-24T14:26:42.609Z,33.50
2019-02-24T14:29:13.103Z,33.90
2019-02-24T14:31:45.038Z,34.30
2019-02-24T14:34:15.544Z,35.10
2019-02-24T14:36:45.988Z,34.20
2019-02-24T14:39:16.566Z,34.90
2019-02-24T14:41:47.020Z,34.20
2019-02-24T14:44:17.507Z,33.90
2019-02-24T14:46:47.963Z,33.70
2019-02-24T14:49:19.601Z,33.30
2019-02-24T14:51:50.069Z,32.60
2019-02-24T14:54:20.560Z,32.60
2019-02-24T14:56:51.066Z,32.80
2019-02-24T14:59:24.445Z,33.20
2019-02-24T15:01:54.943Z,32.80
2019-02-24T15:04:25.442Z,33.50
2019-02-24T15:06:57.469Z,33.70
2019-02-24T15:09:29.703Z,33.40
2019-02-24T15:12:00.195Z,34.00
2019-02-24T15:14:30.698Z,34.50
2019-02-24T15:17:01.165Z,34.10
2019-02-24T15:19:31.657Z,33.40
2019-02-24T15:22:02.120Z,32.90
2019-02-24T15:24:32.979Z,31.90
2019-02-24T15:27:03.468Z,32.20
2019-02-24T15:29:35.782Z,32.50
2019-02-24T15:32:06.194Z,32.80
2019-02-24T15:34:36.645Z,32.60
2019-02-24T15:37:08.632Z,33.40
2019-02-24T15:39:39.094Z,33.60
2019-02-24T15:42:09.583Z,33.60
2019-02-24T15:44:40.055Z,33.80
2019-02-24T15:47:11.398Z,34.20
2019-02-24T15:49:41.875Z,34.70
2019-02-24T15:52:12.730Z,35.10
2019-02-24T15:54:43.186Z,35.90
2019-02-24T15:57:13.683Z,36.50
2019-02-24T15:59:44.148Z,36.80
2019-02-24T16:02:14.652Z,37.20
2019-02-24T16:04:45.110Z,37.50
2019-02-24T16:07:15.592Z,37.70
2019-02-24T16:09:46.059Z,37.80
2019-02-24T16:12:16.545Z,38.00
2019-02-24T16:14:47.039Z,38.20
2019-02-24T16:17:17.502Z,38.20
2019-02-24T16:19:47.996Z,38.00
2019-02-24T16:22:18.450Z,38.20
2019-02-24T16:24:50.473Z,38.60
2019-02-24T16:27:20.925Z,39.10
2019-02-24T16:29:51.424Z,39.50
2019-02-24T16:32:21.951Z,40.20
2019-02-24T16:34:52.468Z,40.50
2019-02-24T16:37:22.951Z,41.30
2019-02-24T16:39:53.409Z,41.40
2019-02-24T16:42:23.897Z,41.40
2019-02-24T16:44:54.454Z,41.90
2019-02-24T16:47:25.083Z,42.10
2019-02-24T16:49:56.248Z,43.10
2019-02-24T16:52:26.709Z,44.80
2019-02-24T16:54:57.195Z,46.40
2019-02-24T16:57:27.658Z,48.20
2019-02-24T16:59:59.689Z,48.40
2019-02-24T17:02:30.143Z,47.30
2019-02-24T17:05:00.623Z,47.40
2019-02-24T17:07:31.079Z,47.90
2019-02-24T17:10:01.559Z,47.80
2019-02-24T17:12:33.555Z,48.60
2019-02-24T17:15:04.480Z,51.40
2019-02-24T17:17:34.942Z,51.70
2019-02-24T17:20:09.717Z,52.10
2019-02-24T17:22:40.284Z,52.60
2019-02-24T17:25:11.456Z,52.50
2019-02-24T17:27:41.996Z,53.70
2019-02-24T17:30:16.680Z,54.60
2019-02-24T17:32:47.136Z,55.00
2019-02-24T17:35:17.702Z,55.60
2019-02-24T17:37:48.191Z,55.50
2019-02-24T17:40:22.834Z,56.20
2019-02-24T17:42:53.361Z,57.50
2019-02-24T17:45:27.874Z,56.90
2019-02-24T17:47:59.466Z,57.40
2019-02-24T17:50:30.006Z,58.40
2019-02-24T17:53:00.573Z,59.00
2019-02-24T17:55:33.360Z,59.90
2019-02-24T17:58:04.859Z,60.40
2019-02-24T18:00:43.364Z,60.90
2019-02-24T18:03:13.865Z,62.00
2019-02-24T18:05:44.331Z,62.00
2019-02-24T18:08:14.896Z,64.80
2019-02-24T18:10:45.403Z,65.90
2019-02-24T18:13:16.557Z,66.20
2019-02-24T18:15:47.081Z,67.40
2019-02-24T18:18:18.732Z,69.40
2019-02-24T18:20:49.224Z,71.90
2019-02-24T18:23:19.696Z,71.60
2019-02-24T18:25:51.808Z,70.00
2019-02-24T18:28:22.275Z,69.70
2019-02-24T18:30:52.864Z,70.30
2019-02-24T18:33:23.322Z,71.00
2019-02-24T18:35:53.829Z,72.20
2019-02-24T18:38:24.372Z,72.90
2019-02-24T18:40:54.844Z,73.60
2019-02-24T18:43:26.984Z,74.60
2019-02-24T18:45:57.470Z,74.10
2019-02-24T18:48:29.280Z,73.20
2019-02-24T18:51:00.332Z,73.90
2019-02-24T18:53:31.389Z,74.50
2019-02-24T18:56:09.452Z,75.20
2019-02-24T18:58:41.864Z,74.60
2019-02-24T19:01:12.406Z,74.10
2019-02-24T19:03:44.704Z,74.50
2019-02-24T19:06:16.688Z,75.40
2019-02-24T19:08:51.863Z,76.50
2019-02-24T19:11:23.200Z,78.00
2019-02-24T19:13:53.688Z,78.40
2019-02-24T19:16:24.956Z,80.00
2019-02-24T19:18:55.453Z,80.40
2019-02-24T19:21:25.913Z,80.60
2019-02-24T19:23:56.407Z,80.80
2019-02-24T19:26:26.907Z,81.50
2019-02-24T19:28:57.415Z,80.80
2019-02-24T19:31:27.890Z,80.00
2019-02-24T19:34:06.359Z,79.90
2019-02-24T19:36:30.574Z,79.70
2019-02-24T19:39:02.586Z,79.70
2019-02-24T19:41:33.108Z,80.00
2019-02-24T19:44:04.155Z,80.90
2019-02-24T19:46:35.329Z,81.10
2019-02-24T19:49:05.770Z,81.10
2019-02-24T19:51:37.521Z,81.60
2019-02-24T19:54:07.998Z,82.00
2019-02-24T19:56:38.498Z,81.70
2019-02-24T19:59:09.053Z,81.50
2019-02-24T20:01:39.561Z,82.10
2019-02-24T20:04:15.953Z,84.10
2019-02-24T20:06:42.245Z,83.80
2019-02-24T20:09:12.776Z,83.60
2019-02-24T20:11:44.570Z,83.90
2019-02-24T20:14:15.036Z,85.40
2019-02-24T20:16:47.066Z,84.80
2019-02-24T20:19:17.523Z,84.80
2019-02-24T20:21:48.010Z,85.90
2019-02-24T20:24:19.075Z,85.70
2019-02-24T20:26:49.571Z,85.70
2019-02-24T20:29:20.031Z,85.30
2019-02-24T20:31:50.553Z,85.40
2019-02-24T20:34:25.586Z,86.90
2019-02-24T20:36:54.926Z,87.80
2019-02-24T20:39:25.375Z,87.80
2019-02-24T20:41:55.887Z,87.40
2019-02-24T20:44:26.356Z,87.00
2019-02-24T20:47:00.028Z,86.80
2019-02-24T20:49:31.681Z,86.40
2019-02-24T20:52:03.589Z,86.00
2019-02-24T20:54:35.917Z,85.60
2019-02-24T20:57:06.479Z,85.80
2019-02-24T20:59:36.974Z,86.10
2019-02-24T21:02:08.240Z,85.10
2019-02-24T21:04:38.743Z,86.00
2019-02-24T21:07:09.191Z,86.50
2019-02-24T21:09:39.690Z,86.70
2019-02-24T21:12:11.697Z,86.90
2019-02-24T21:14:42.198Z,87.50
2019-02-24T21:17:12.666Z,87.00
2019-02-24T21:19:43.181Z,87.20
2019-02-24T21:22:13.630Z,87.20
2019-02-24T21:24:44.118Z,87.50
2019-02-24T21:27:14.605Z,87.60
2019-02-24T21:29:45.738Z,88.70
2019-02-24T21:32:16.216Z,88.40
2019-02-24T21:34:47.991Z,88.70
2019-02-24T21:37:18.484Z,88.40
2019-02-24T21:39:50.478Z,88.80
2019-02-24T21:42:20.976Z,89.90
2019-02-24T21:44:53.006Z,90.00
2019-02-24T21:47:23.491Z,89.80
2019-02-24T21:49:53.963Z,89.90
2019-02-24T21:52:25.227Z,90.10
2019-02-24T21:54:56.253Z,90.30
2019-02-24T21:57:26.744Z,90.40
2019-02-24T21:59:57.204Z,90.20
2019-02-24T22:02:27.696Z,90.00
2019-02-24T22:04:58.186Z,89.70
2019-02-24T22:07:28.672Z,90.00
2019-02-24T22:09:59.148Z,90.30
2019-02-24T22:12:29.632Z,90.70
2019-02-24T22:15:00.142Z,90.90
2019-02-24T22:17:30.762Z,90.80
2019-02-24T22:20:01.229Z,90.50
2019-02-24T22:22:33.380Z,90.30
2019-02-24T22:25:04.676Z,90.40
2019-02-24T22:27:35.174Z,90.60
2019-02-24T22:30:10.248Z,90.60
2019-02-24T22:32:41.654Z,90.40
2019-02-24T22:35:12.290Z,90.90
2019-02-24T22:37:42.815Z,90.90
2019-02-24T22:40:16.735Z,91.00
2019-02-24T22:42:47.822Z,91.00
2019-02-24T22:45:20.969Z,90.80
2019-02-24T22:47:51.525Z,90.80
2019-02-24T22:50:22.022Z,90.50
2019-02-24T22:52:52.478Z,90.20
2019-02-24T22:55:23.035Z,90.30
2019-02-24T22:57:53.501Z,90.20
2019-02-24T23:00:53.700Z,90.40
2019-02-24T23:03:31.299Z,90.80
2019-02-24T23:06:01.813Z,90.40
2019-02-24T23:08:34.495Z,90.60
2019-02-24T23:11:06.189Z,90.60
2019-02-24T23:13:36.650Z,90.60
2019-02-24T23:16:07.149Z,91.40
2019-02-24T23:18:38.183Z,91.30
2019-02-24T23:21:08.686Z,91.20
2019-02-24T23:23:39.154Z,91.00
2019-02-24T23:26:09.641Z,90.90
2019-02-24T23:28:40.277Z,90.80
2019-02-24T23:31:11.917Z,91.10
2019-02-24T23:33:42.407Z,91.70
2019-02-24T23:36:13.668Z,91.60
2019-02-24T23:38:44.724Z,91.50
2019-02-24T23:41:15.191Z,91.40
2019-02-24T23:43:45.691Z,91.10
2019-02-24T23:46:16.147Z,91.20
2019-02-24T23:48:46.655Z,91.10
2019-02-24T23:51:17.139Z,91.00
2019-02-24T23:53:47.644Z,90.90
2019-02-24T23:56:18.097Z,90.60
2019-02-24T23:58:48.581Z,90.40
